sensor_id;sensor_type;location;lat;lon;timestamp;P1;durP1;ratioP1;P2;durP2;ratioP2
58528;SDS011;44322;52.968;5.816;2022-11-20T00:02:05;18.40;;;11.30;;
58528;SDS011;44322;52.968;5.816;2022-11-20T00:04:30;18.27;;;10.73;;
58528;SDS011;44322;52.968;5.816;2022-11-20T00:06:56;19.08;;;11.70;;
58528;SDS011;44322;52.968;5.816;2022-11-20T00:09:22;18.23;;;11.27;;
58528;SDS011;44322;52.968;5.816;2022-11-20T00:11:48;18.77;;;11.20;;
58528;SDS011;44322;52.968;5.816;2022-11-20T00:14:13;18.70;;;11.07;;
58528;SDS011;44322;52.968;5.816;2022-11-20T00:16:39;17.25;;;10.65;;
58528;SDS011;44322;52.968;5.816;2022-11-20T00:19:05;24.10;;;12.82;;
58528;SDS011;44322;52.968;5.816;2022-11-20T00:21:31;24.48;;;12.50;;
58528;SDS011;44322;52.968;5.816;2022-11-20T00:23:57;21.40;;;11.82;;
58528;SDS011;44322;52.968;5.816;2022-11-20T00:26:24;20.15;;;12.02;;
58528;SDS011;44322;52.968;5.816;2022-11-20T00:28:51;22.88;;;13.13;;
58528;SDS011;44322;52.968;5.816;2022-11-20T00:31:18;23.00;;;11.80;;
58528;SDS011;44322;52.968;5.816;2022-11-20T00:33:44;20.73;;;11.52;;
58528;SDS011;44322;52.968;5.816;2022-11-20T00:36:12;16.50;;;11.15;;
58528;SDS011;44322;52.968;5.816;2022-11-20T00:38:40;20.63;;;12.10;;
58528;SDS011;44322;52.968;5.816;2022-11-20T00:41:07;19.50;;;11.75;;
58528;SDS011;44322;52.968;5.816;2022-11-20T00:43:34;20.13;;;11.75;;
58528;SDS011;44322;52.968;5.816;2022-11-20T00:46:01;18.60;;;11.32;;
58528;SDS011;44322;52.968;5.816;2022-11-20T00:48:28;21.85;;;11.95;;
58528;SDS011;44322;52.968;5.816;2022-11-20T00:50:54;20.67;;;11.68;;
58528;SDS011;44322;52.968;5.816;2022-11-20T00:53:21;22.15;;;11.65;;
58528;SDS011;44322;52.968;5.816;2022-11-20T00:55:57;19.83;;;11.30;;
58528;SDS011;44322;52.968;5.816;2022-11-20T00:58:24;17.63;;;10.38;;
58528;SDS011;44322;52.968;5.816;2022-11-20T01:00:54;17.83;;;11.00;;
58528;SDS011;44322;52.968;5.816;2022-11-20T01:03:34;19.35;;;11.25;;
58528;SDS011;44322;52.968;5.816;2022-11-20T01:06:02;18.40;;;11.73;;
58528;SDS011;44322;52.968;5.816;2022-11-20T01:08:33;22.13;;;12.50;;
58528;SDS011;44322;52.968;5.816;2022-11-20T01:11:01;19.45;;;11.98;;
58528;SDS011;44322;52.968;5.816;2022-11-20T01:13:29;20.30;;;10.82;;
58528;SDS011;44322;52.968;5.816;2022-11-20T01:16:15;19.88;;;11.90;;
58528;SDS011;44322;52.968;5.816;2022-11-20T01:18:42;20.92;;;11.15;;
58528;SDS011;44322;52.968;5.816;2022-11-20T01:21:14;23.13;;;12.35;;
58528;SDS011;44322;52.968;5.816;2022-11-20T01:23:45;18.10;;;11.57;;
58528;SDS011;44322;52.968;5.816;2022-11-20T01:26:13;22.10;;;12.30;;
58528;SDS011;44322;52.968;5.816;2022-11-20T01:28:41;21.55;;;11.40;;
58528;SDS011;44322;52.968;5.816;2022-11-20T01:31:12;21.73;;;12.25;;
58528;SDS011;44322;52.968;5.816;2022-11-20T01:33:49;17.63;;;11.65;;
58528;SDS011;44322;52.968;5.816;2022-11-20T01:36:17;21.02;;;12.57;;
58528;SDS011;44322;52.968;5.816;2022-11-20T01:38:44;22.10;;;12.60;;
58528;SDS011;44322;52.968;5.816;2022-11-20T01:41:11;22.48;;;13.15;;
58528;SDS011;44322;52.968;5.816;2022-11-20T01:44:01;20.27;;;12.82;;
58528;SDS011;44322;52.968;5.816;2022-11-20T01:46:28;19.73;;;12.60;;
58528;SDS011;44322;52.968;5.816;2022-11-20T01:49:28;22.65;;;13.02;;
58528;SDS011;44322;52.968;5.816;2022-11-20T01:51:58;20.75;;;12.57;;
58528;SDS011;44322;52.968;5.816;2022-11-20T01:54:36;20.77;;;12.77;;
58528;SDS011;44322;52.968;5.816;2022-11-20T01:57:24;21.63;;;12.90;;
58528;SDS011;44322;52.968;5.816;2022-11-20T01:59:57;21.90;;;12.70;;
58528;SDS011;44322;52.968;5.816;2022-11-20T02:02:37;21.60;;;12.82;;
58528;SDS011;44322;52.968;5.816;2022-11-20T02:05:12;23.48;;;13.23;;
58528;SDS011;44322;52.968;5.816;2022-11-20T02:07:45;20.77;;;12.38;;
58528;SDS011;44322;52.968;5.816;2022-11-20T02:10:11;23.50;;;13.77;;
58528;SDS011;44322;52.968;5.816;2022-11-20T02:12:37;22.27;;;13.02;;
58528;SDS011;44322;52.968;5.816;2022-11-20T02:15:22;20.23;;;12.45;;
58528;SDS011;44322;52.968;5.816;2022-11-20T02:17:48;22.08;;;12.60;;
58528;SDS011;44322;52.968;5.816;2022-11-20T02:20:13;22.63;;;12.80;;
58528;SDS011;44322;52.968;5.816;2022-11-20T02:22:43;22.30;;;13.20;;
58528;SDS011;44322;52.968;5.816;2022-11-20T02:25:16;21.08;;;12.30;;
58528;SDS011;44322;52.968;5.816;2022-11-20T02:27:42;19.05;;;11.15;;
58528;SDS011;44322;52.968;5.816;2022-11-20T02:30:08;19.17;;;11.90;;
58528;SDS011;44322;52.968;5.816;2022-11-20T02:32:36;21.27;;;11.97;;
58528;SDS011;44322;52.968;5.816;2022-11-20T02:37:44;19.75;;;11.85;;
58528;SDS011;44322;52.968;5.816;2022-11-20T02:40:16;20.42;;;11.95;;
58528;SDS011;44322;52.968;5.816;2022-11-20T02:42:42;19.02;;;11.75;;
58528;SDS011;44322;52.968;5.816;2022-11-20T02:45:08;17.58;;;11.45;;
58528;SDS011;44322;52.968;5.816;2022-11-20T02:47:34;20.25;;;11.65;;
58528;SDS011;44322;52.968;5.816;2022-11-20T02:49:59;19.20;;;11.65;;
58528;SDS011;44322;52.968;5.816;2022-11-20T02:52:25;20.27;;;12.30;;
58528;SDS011;44322;52.968;5.816;2022-11-20T02:54:51;18.27;;;11.75;;
58528;SDS011;44322;52.968;5.816;2022-11-20T02:57:17;23.27;;;12.70;;
58528;SDS011;44322;52.968;5.816;2022-11-20T02:59:43;19.30;;;11.80;;
58528;SDS011;44322;52.968;5.816;2022-11-20T03:02:09;19.30;;;11.57;;
58528;SDS011;44322;52.968;5.816;2022-11-20T03:04:35;20.33;;;11.82;;
58528;SDS011;44322;52.968;5.816;2022-11-20T03:07:01;19.15;;;11.45;;
58528;SDS011;44322;52.968;5.816;2022-11-20T03:09:27;17.92;;;11.52;;
58528;SDS011;44322;52.968;5.816;2022-11-20T03:11:53;19.35;;;11.90;;
58528;SDS011;44322;52.968;5.816;2022-11-20T03:14:19;20.52;;;11.82;;
58528;SDS011;44322;52.968;5.816;2022-11-20T03:16:45;20.30;;;12.20;;
58528;SDS011;44322;52.968;5.816;2022-11-20T03:19:11;20.20;;;12.25;;
58528;SDS011;44322;52.968;5.816;2022-11-20T03:21:37;20.13;;;11.63;;
58528;SDS011;44322;52.968;5.816;2022-11-20T03:24:03;20.90;;;12.18;;
58528;SDS011;44322;52.968;5.816;2022-11-20T03:26:30;17.40;;;11.15;;
58528;SDS011;44322;52.968;5.816;2022-11-20T03:29:00;18.88;;;11.52;;
58528;SDS011;44322;52.968;5.816;2022-11-20T03:31:28;19.25;;;11.52;;
58528;SDS011;44322;52.968;5.816;2022-11-20T03:33:56;19.80;;;11.85;;
58528;SDS011;44322;52.968;5.816;2022-11-20T03:36:23;19.38;;;11.18;;
58528;SDS011;44322;52.968;5.816;2022-11-20T03:38:49;19.63;;;12.18;;
58528;SDS011;44322;52.968;5.816;2022-11-20T03:41:19;19.45;;;11.85;;
58528;SDS011;44322;52.968;5.816;2022-11-20T03:43:50;19.30;;;12.00;;
58528;SDS011;44322;52.968;5.816;2022-11-20T03:46:17;19.90;;;11.88;;
58528;SDS011;44322;52.968;5.816;2022-11-20T03:48:43;22.50;;;12.00;;
58528;SDS011;44322;52.968;5.816;2022-11-20T03:51:14;18.25;;;11.82;;
58528;SDS011;44322;52.968;5.816;2022-11-20T03:53:42;20.20;;;12.05;;
58528;SDS011;44322;52.968;5.816;2022-11-20T03:56:10;18.75;;;11.85;;
58528;SDS011;44322;52.968;5.816;2022-11-20T03:58:38;17.27;;;11.15;;
58528;SDS011;44322;52.968;5.816;2022-11-20T04:01:05;19.58;;;11.77;;
58528;SDS011;44322;52.968;5.816;2022-11-20T04:03:37;17.33;;;10.75;;
58528;SDS011;44322;52.968;5.816;2022-11-20T04:06:14;20.65;;;11.55;;
58528;SDS011;44322;52.968;5.816;2022-11-20T04:08:44;20.60;;;12.00;;
58528;SDS011;44322;52.968;5.816;2022-11-20T04:13:41;20.85;;;11.85;;
58528;SDS011;44322;52.968;5.816;2022-11-20T04:16:08;19.95;;;11.93;;
58528;SDS011;44322;52.968;5.816;2022-11-20T04:18:35;20.35;;;11.85;;
58528;SDS011;44322;52.968;5.816;2022-11-20T04:21:01;19.40;;;11.48;;
58528;SDS011;44322;52.968;5.816;2022-11-20T04:23:27;19.25;;;11.45;;
58528;SDS011;44322;52.968;5.816;2022-11-20T04:25:53;21.38;;;12.27;;
58528;SDS011;44322;52.968;5.816;2022-11-20T04:28:19;18.40;;;11.48;;
58528;SDS011;44322;52.968;5.816;2022-11-20T04:30:45;22.75;;;13.00;;
58528;SDS011;44322;52.968;5.816;2022-11-20T04:33:11;19.23;;;12.13;;
58528;SDS011;44322;52.968;5.816;2022-11-20T04:35:37;19.73;;;11.95;;
58528;SDS011;44322;52.968;5.816;2022-11-20T04:38:03;18.33;;;11.52;;
58528;SDS011;44322;52.968;5.816;2022-11-20T04:40:29;18.25;;;11.48;;
58528;SDS011;44322;52.968;5.816;2022-11-20T04:42:55;18.20;;;10.98;;
58528;SDS011;44322;52.968;5.816;2022-11-20T04:45:22;17.90;;;11.35;;
58528;SDS011;44322;52.968;5.816;2022-11-20T04:47:48;17.60;;;11.60;;
58528;SDS011;44322;52.968;5.816;2022-11-20T04:50:14;18.55;;;11.45;;
58528;SDS011;44322;52.968;5.816;2022-11-20T04:52:40;19.55;;;11.88;;
58528;SDS011;44322;52.968;5.816;2022-11-20T04:55:06;20.52;;;12.23;;
58528;SDS011;44322;52.968;5.816;2022-11-20T04:57:33;20.65;;;11.75;;
58528;SDS011;44322;52.968;5.816;2022-11-20T04:59:58;23.30;;;12.40;;
58528;SDS011;44322;52.968;5.816;2022-11-20T05:02:24;20.20;;;11.68;;
58528;SDS011;44322;52.968;5.816;2022-11-20T05:04:50;19.80;;;12.30;;
58528;SDS011;44322;52.968;5.816;2022-11-20T05:07:16;20.10;;;12.10;;
58528;SDS011;44322;52.968;5.816;2022-11-20T05:09:42;18.85;;;12.38;;
58528;SDS011;44322;52.968;5.816;2022-11-20T05:12:08;20.63;;;11.80;;
58528;SDS011;44322;52.968;5.816;2022-11-20T05:14:34;20.80;;;12.60;;
58528;SDS011;44322;52.968;5.816;2022-11-20T05:17:00;19.17;;;12.07;;
58528;SDS011;44322;52.968;5.816;2022-11-20T05:19:26;18.60;;;12.32;;
58528;SDS011;44322;52.968;5.816;2022-11-20T05:21:52;22.50;;;12.13;;
58528;SDS011;44322;52.968;5.816;2022-11-20T05:24:17;22.42;;;11.80;;
58528;SDS011;44322;52.968;5.816;2022-11-20T05:26:43;19.80;;;12.35;;
58528;SDS011;44322;52.968;5.816;2022-11-20T05:29:10;19.10;;;11.75;;
58528;SDS011;44322;52.968;5.816;2022-11-20T05:31:38;20.05;;;12.45;;
58528;SDS011;44322;52.968;5.816;2022-11-20T05:34:04;20.98;;;13.13;;
58528;SDS011;44322;52.968;5.816;2022-11-20T05:36:31;21.15;;;12.02;;
58528;SDS011;44322;52.968;5.816;2022-11-20T05:38:57;20.48;;;12.18;;
58528;SDS011;44322;52.968;5.816;2022-11-20T05:41:23;22.77;;;12.07;;
58528;SDS011;44322;52.968;5.816;2022-11-20T05:43:49;19.10;;;12.57;;
58528;SDS011;44322;52.968;5.816;2022-11-20T05:46:17;19.50;;;12.68;;
58528;SDS011;44322;52.968;5.816;2022-11-20T05:48:44;21.00;;;12.75;;
58528;SDS011;44322;52.968;5.816;2022-11-20T05:51:12;19.60;;;11.77;;
58528;SDS011;44322;52.968;5.816;2022-11-20T05:53:40;20.02;;;11.68;;
58528;SDS011;44322;52.968;5.816;2022-11-20T05:56:08;18.20;;;11.35;;
58528;SDS011;44322;52.968;5.816;2022-11-20T05:58:41;20.05;;;11.95;;
58528;SDS011;44322;52.968;5.816;2022-11-20T06:03:42;19.02;;;11.40;;
58528;SDS011;44322;52.968;5.816;2022-11-20T06:06:11;18.35;;;11.68;;
58528;SDS011;44322;52.968;5.816;2022-11-20T06:08:37;21.25;;;12.02;;
58528;SDS011;44322;52.968;5.816;2022-11-20T06:11:04;23.05;;;13.27;;
58528;SDS011;44322;52.968;5.816;2022-11-20T06:13:31;22.23;;;12.13;;
58528;SDS011;44322;52.968;5.816;2022-11-20T06:15:57;20.60;;;12.20;;
58528;SDS011;44322;52.968;5.816;2022-11-20T06:18:23;22.35;;;13.13;;
58528;SDS011;44322;52.968;5.816;2022-11-20T06:20:58;19.75;;;11.88;;
58528;SDS011;44322;52.968;5.816;2022-11-20T06:23:25;21.80;;;12.68;;
58528;SDS011;44322;52.968;5.816;2022-11-20T06:25:52;21.77;;;12.60;;
58528;SDS011;44322;52.968;5.816;2022-11-20T06:28:19;19.02;;;12.02;;
58528;SDS011;44322;52.968;5.816;2022-11-20T06:30:45;19.42;;;12.82;;
58528;SDS011;44322;52.968;5.816;2022-11-20T06:33:11;20.27;;;12.77;;
58528;SDS011;44322;52.968;5.816;2022-11-20T06:35:37;17.25;;;10.57;;
58528;SDS011;44322;52.968;5.816;2022-11-20T06:38:03;19.48;;;12.10;;
58528;SDS011;44322;52.968;5.816;2022-11-20T06:40:28;17.48;;;11.52;;
58528;SDS011;44322;52.968;5.816;2022-11-20T06:42:54;20.85;;;12.18;;
58528;SDS011;44322;52.968;5.816;2022-11-20T06:45:21;18.60;;;11.65;;
58528;SDS011;44322;52.968;5.816;2022-11-20T06:47:46;18.60;;;12.05;;
58528;SDS011;44322;52.968;5.816;2022-11-20T06:50:12;20.10;;;12.07;;
58528;SDS011;44322;52.968;5.816;2022-11-20T06:52:38;18.45;;;10.98;;
58528;SDS011;44322;52.968;5.816;2022-11-20T06:55:04;20.25;;;12.05;;
58528;SDS011;44322;52.968;5.816;2022-11-20T06:57:31;23.45;;;11.90;;
58528;SDS011;44322;52.968;5.816;2022-11-20T06:59:56;23.38;;;12.55;;
58528;SDS011;44322;52.968;5.816;2022-11-20T07:02:22;19.23;;;11.50;;
58528;SDS011;44322;52.968;5.816;2022-11-20T07:04:48;19.90;;;12.43;;
58528;SDS011;44322;52.968;5.816;2022-11-20T07:07:14;20.25;;;11.90;;
58528;SDS011;44322;52.968;5.816;2022-11-20T07:09:39;19.23;;;12.40;;
58528;SDS011;44322;52.968;5.816;2022-11-20T07:12:05;27.13;;;15.85;;
58528;SDS011;44322;52.968;5.816;2022-11-20T07:14:31;26.50;;;16.17;;
58528;SDS011;44322;52.968;5.816;2022-11-20T07:16:57;29.63;;;16.50;;
58528;SDS011;44322;52.968;5.816;2022-11-20T07:19:23;27.63;;;16.45;;
58528;SDS011;44322;52.968;5.816;2022-11-20T07:21:49;27.13;;;16.00;;
58528;SDS011;44322;52.968;5.816;2022-11-20T07:24:14;25.38;;;15.82;;
58528;SDS011;44322;52.968;5.816;2022-11-20T07:26:40;23.45;;;15.30;;
58528;SDS011;44322;52.968;5.816;2022-11-20T07:29:06;28.30;;;16.30;;
58528;SDS011;44322;52.968;5.816;2022-11-20T07:31:32;26.23;;;15.80;;
58528;SDS011;44322;52.968;5.816;2022-11-20T07:33:58;26.10;;;16.50;;
58528;SDS011;44322;52.968;5.816;2022-11-20T07:36:24;27.42;;;16.40;;
58528;SDS011;44322;52.968;5.816;2022-11-20T07:38:50;26.13;;;15.65;;
58528;SDS011;44322;52.968;5.816;2022-11-20T07:41:16;26.10;;;15.75;;
58528;SDS011;44322;52.968;5.816;2022-11-20T07:43:41;25.52;;;14.90;;
58528;SDS011;44322;52.968;5.816;2022-11-20T07:46:07;26.77;;;16.00;;
58528;SDS011;44322;52.968;5.816;2022-11-20T07:48:33;23.08;;;14.35;;
58528;SDS011;44322;52.968;5.816;2022-11-20T07:50:59;24.27;;;14.48;;
58528;SDS011;44322;52.968;5.816;2022-11-20T07:53:25;21.75;;;13.57;;
58528;SDS011;44322;52.968;5.816;2022-11-20T07:55:50;22.98;;;13.50;;
58528;SDS011;44322;52.968;5.816;2022-11-20T07:58:19;22.67;;;13.35;;
58528;SDS011;44322;52.968;5.816;2022-11-20T08:00:46;22.50;;;13.98;;
58528;SDS011;44322;52.968;5.816;2022-11-20T08:03:12;20.13;;;12.38;;
58528;SDS011;44322;52.968;5.816;2022-11-20T08:05:39;19.33;;;13.07;;
58528;SDS011;44322;52.968;5.816;2022-11-20T08:08:05;23.00;;;12.85;;
58528;SDS011;44322;52.968;5.816;2022-11-20T08:10:32;21.00;;;13.07;;
58528;SDS011;44322;52.968;5.816;2022-11-20T08:12:58;45.63;;;26.38;;
58528;SDS011;44322;52.968;5.816;2022-11-20T08:15:47;28.63;;;16.98;;
58528;SDS011;44322;52.968;5.816;2022-11-20T08:18:18;26.20;;;15.52;;
58528;SDS011;44322;52.968;5.816;2022-11-20T08:20:44;21.83;;;13.55;;
58528;SDS011;44322;52.968;5.816;2022-11-20T08:23:12;22.52;;;12.90;;
58528;SDS011;44322;52.968;5.816;2022-11-20T08:25:38;19.48;;;12.38;;
58528;SDS011;44322;52.968;5.816;2022-11-20T08:28:05;20.95;;;12.35;;
58528;SDS011;44322;52.968;5.816;2022-11-20T08:33:03;22.63;;;12.40;;
58528;SDS011;44322;52.968;5.816;2022-11-20T08:35:34;22.83;;;12.82;;
58528;SDS011;44322;52.968;5.816;2022-11-20T08:38:04;23.42;;;14.02;;
58528;SDS011;44322;52.968;5.816;2022-11-20T08:40:31;21.30;;;12.73;;
58528;SDS011;44322;52.968;5.816;2022-11-20T08:42:57;22.80;;;12.82;;
58528;SDS011;44322;52.968;5.816;2022-11-20T08:45:23;21.33;;;12.75;;
58528;SDS011;44322;52.968;5.816;2022-11-20T08:47:49;21.98;;;12.98;;
58528;SDS011;44322;52.968;5.816;2022-11-20T08:50:15;22.58;;;13.65;;
58528;SDS011;44322;52.968;5.816;2022-11-20T08:52:42;20.15;;;13.10;;
58528;SDS011;44322;52.968;5.816;2022-11-20T08:55:08;23.10;;;13.02;;
58528;SDS011;44322;52.968;5.816;2022-11-20T08:57:35;19.92;;;11.70;;
58528;SDS011;44322;52.968;5.816;2022-11-20T09:00:02;22.13;;;13.35;;
58528;SDS011;44322;52.968;5.816;2022-11-20T09:02:30;22.02;;;13.27;;
58528;SDS011;44322;52.968;5.816;2022-11-20T09:04:57;20.20;;;12.45;;
58528;SDS011;44322;52.968;5.816;2022-11-20T09:07:23;23.35;;;13.05;;
58528;SDS011;44322;52.968;5.816;2022-11-20T09:09:49;18.60;;;12.13;;
58528;SDS011;44322;52.968;5.816;2022-11-20T09:12:15;25.05;;;12.15;;
58528;SDS011;44322;52.968;5.816;2022-11-20T09:14:41;21.00;;;13.30;;
58528;SDS011;44322;52.968;5.816;2022-11-20T09:17:07;19.95;;;12.77;;
58528;SDS011;44322;52.968;5.816;2022-11-20T09:19:34;21.33;;;12.77;;
58528;SDS011;44322;52.968;5.816;2022-11-20T09:22:00;21.45;;;12.13;;
58528;SDS011;44322;52.968;5.816;2022-11-20T09:24:26;22.45;;;12.90;;
58528;SDS011;44322;52.968;5.816;2022-11-20T09:26:53;21.73;;;13.90;;
58528;SDS011;44322;52.968;5.816;2022-11-20T09:29:18;20.30;;;12.70;;
58528;SDS011;44322;52.968;5.816;2022-11-20T09:31:44;19.55;;;12.32;;
58528;SDS011;44322;52.968;5.816;2022-11-20T09:34:10;19.63;;;12.55;;
58528;SDS011;44322;52.968;5.816;2022-11-20T09:36:36;21.15;;;12.68;;
58528;SDS011;44322;52.968;5.816;2022-11-20T09:39:02;19.85;;;12.20;;
58528;SDS011;44322;52.968;5.816;2022-11-20T09:47:08;18.67;;;12.45;;
58528;SDS011;44322;52.968;5.816;2022-11-20T09:52:40;18.50;;;12.20;;
58528;SDS011;44322;52.968;5.816;2022-11-20T09:55:40;20.27;;;12.55;;
58528;SDS011;44322;52.968;5.816;2022-11-20T09:58:07;19.13;;;12.05;;
58528;SDS011;44322;52.968;5.816;2022-11-20T10:00:49;18.60;;;11.52;;
58528;SDS011;44322;52.968;5.816;2022-11-20T10:03:23;19.88;;;12.10;;
58528;SDS011;44322;52.968;5.816;2022-11-20T10:06:02;20.77;;;13.10;;
58528;SDS011;44322;52.968;5.816;2022-11-20T10:08:43;19.23;;;12.25;;
58528;SDS011;44322;52.968;5.816;2022-11-20T10:12:03;16.40;;;11.73;;
58528;SDS011;44322;52.968;5.816;2022-11-20T10:14:35;21.40;;;12.88;;
58528;SDS011;44322;52.968;5.816;2022-11-20T10:20:16;19.77;;;11.82;;
58528;SDS011;44322;52.968;5.816;2022-11-20T10:22:59;18.58;;;11.05;;
58528;SDS011;44322;52.968;5.816;2022-11-20T10:25:39;18.35;;;11.57;;
58528;SDS011;44322;52.968;5.816;2022-11-20T10:28:34;17.77;;;12.05;;
58528;SDS011;44322;52.968;5.816;2022-11-20T10:31:26;16.02;;;11.57;;
58528;SDS011;44322;52.968;5.816;2022-11-20T10:33:58;17.30;;;11.13;;
58528;SDS011;44322;52.968;5.816;2022-11-20T10:36:34;18.63;;;11.95;;
58528;SDS011;44322;52.968;5.816;2022-11-20T10:39:07;16.42;;;10.93;;
58528;SDS011;44322;52.968;5.816;2022-11-20T10:41:49;16.35;;;11.00;;
58528;SDS011;44322;52.968;5.816;2022-11-20T10:44:26;19.65;;;11.60;;
58528;SDS011;44322;52.968;5.816;2022-11-20T10:47:14;15.18;;;11.20;;
58528;SDS011;44322;52.968;5.816;2022-11-20T10:49:45;17.50;;;11.25;;
58528;SDS011;44322;52.968;5.816;2022-11-20T10:55:22;18.48;;;11.07;;
58528;SDS011;44322;52.968;5.816;2022-11-20T10:58:10;18.60;;;11.32;;
58528;SDS011;44322;52.968;5.816;2022-11-20T11:01:17;18.27;;;11.68;;
58528;SDS011;44322;52.968;5.816;2022-11-20T11:03:48;17.08;;;11.65;;
58528;SDS011;44322;52.968;5.816;2022-11-20T11:09:26;16.80;;;10.93;;
58528;SDS011;44322;52.968;5.816;2022-11-20T11:12:22;17.45;;;10.60;;
58528;SDS011;44322;52.968;5.816;2022-11-20T11:22:39;17.40;;;9.90;;
58528;SDS011;44322;52.968;5.816;2022-11-20T11:28:28;14.65;;;9.70;;
58528;SDS011;44322;52.968;5.816;2022-11-20T11:31:00;17.23;;;10.82;;
58528;SDS011;44322;52.968;5.816;2022-11-20T11:33:47;14.77;;;9.68;;
58528;SDS011;44322;52.968;5.816;2022-11-20T11:37:19;13.10;;;9.18;;
58528;SDS011;44322;52.968;5.816;2022-11-20T11:40:45;15.73;;;10.40;;
58528;SDS011;44322;52.968;5.816;2022-11-20T11:46:38;14.43;;;9.15;;
58528;SDS011;44322;52.968;5.816;2022-11-20T11:55:00;12.75;;;8.13;;
58528;SDS011;44322;52.968;5.816;2022-11-20T11:57:39;14.60;;;9.25;;
58528;SDS011;44322;52.968;5.816;2022-11-20T12:00:17;13.25;;;8.90;;
58528;SDS011;44322;52.968;5.816;2022-11-20T12:07:52;13.25;;;8.70;;
58528;SDS011;44322;52.968;5.816;2022-11-20T12:10:37;13.50;;;9.20;;
58528;SDS011;44322;52.968;5.816;2022-11-20T12:15:59;11.18;;;8.00;;
58528;SDS011;44322;52.968;5.816;2022-11-20T12:18:27;11.13;;;8.00;;
58528;SDS011;44322;52.968;5.816;2022-11-20T12:21:03;13.02;;;9.20;;
58528;SDS011;44322;52.968;5.816;2022-11-20T12:27:59;11.10;;;8.57;;
58528;SDS011;44322;52.968;5.816;2022-11-20T12:29:59;13.95;;;8.75;;
58528;SDS011;44322;52.968;5.816;2022-11-20T12:33:04;12.40;;;8.57;;
58528;SDS011;44322;52.968;5.816;2022-11-20T12:39:17;13.80;;;8.48;;
58528;SDS011;44322;52.968;5.816;2022-11-20T12:45:46;12.27;;;8.23;;
58528;SDS011;44322;52.968;5.816;2022-11-20T12:48:29;16.70;;;10.18;;
58528;SDS011;44322;52.968;5.816;2022-11-20T12:57:09;13.52;;;9.00;;
58528;SDS011;44322;52.968;5.816;2022-11-20T13:06:05;13.88;;;9.38;;
58528;SDS011;44322;52.968;5.816;2022-11-20T13:08:53;12.52;;;8.85;;
58528;SDS011;44322;52.968;5.816;2022-11-20T13:15:14;14.00;;;9.63;;
58528;SDS011;44322;52.968;5.816;2022-11-20T13:17:41;14.50;;;8.77;;
58528;SDS011;44322;52.968;5.816;2022-11-20T13:20:33;14.25;;;9.25;;
58528;SDS011;44322;52.968;5.816;2022-11-20T13:26:47;14.10;;;9.23;;
58528;SDS011;44322;52.968;5.816;2022-11-20T13:29:23;15.80;;;10.15;;
58528;SDS011;44322;52.968;5.816;2022-11-20T13:32:16;12.38;;;9.30;;
58528;SDS011;44322;52.968;5.816;2022-11-20T13:35:08;14.65;;;9.38;;
58528;SDS011;44322;52.968;5.816;2022-11-20T13:37:39;14.10;;;9.55;;
58528;SDS011;44322;52.968;5.816;2022-11-20T13:43:08;15.50;;;9.88;;
58528;SDS011;44322;52.968;5.816;2022-11-20T13:46:06;15.10;;;9.70;;
58528;SDS011;44322;52.968;5.816;2022-11-20T13:48:39;16.48;;;10.90;;
58528;SDS011;44322;52.968;5.816;2022-11-20T14:05:19;19.02;;;10.90;;
58528;SDS011;44322;52.968;5.816;2022-11-20T14:13:52;18.02;;;10.98;;
58528;SDS011;44322;52.968;5.816;2022-11-20T14:16:41;17.88;;;11.32;;
58528;SDS011;44322;52.968;5.816;2022-11-20T14:19:45;16.80;;;11.13;;
58528;SDS011;44322;52.968;5.816;2022-11-20T14:24:39;14.50;;;10.68;;
58528;SDS011;44322;52.968;5.816;2022-11-20T14:27:10;14.93;;;10.60;;
58528;SDS011;44322;52.968;5.816;2022-11-20T14:29:41;16.85;;;11.25;;
58528;SDS011;44322;52.968;5.816;2022-11-20T14:32:12;16.67;;;11.00;;
58528;SDS011;44322;52.968;5.816;2022-11-20T14:34:45;18.13;;;11.52;;
58528;SDS011;44322;52.968;5.816;2022-11-20T14:37:18;19.20;;;12.20;;
58528;SDS011;44322;52.968;5.816;2022-11-20T14:39:50;17.75;;;11.25;;
58528;SDS011;44322;52.968;5.816;2022-11-20T14:42:20;15.65;;;11.32;;
58528;SDS011;44322;52.968;5.816;2022-11-20T14:44:50;18.55;;;11.55;;
58528;SDS011;44322;52.968;5.816;2022-11-20T14:47:26;17.73;;;10.98;;
58528;SDS011;44322;52.968;5.816;2022-11-20T14:50:01;17.52;;;11.98;;
58528;SDS011;44322;52.968;5.816;2022-11-20T14:52:28;16.27;;;10.82;;
58528;SDS011;44322;52.968;5.816;2022-11-20T14:54:57;16.95;;;11.55;;
58528;SDS011;44322;52.968;5.816;2022-11-20T14:57:34;15.98;;;11.57;;
58528;SDS011;44322;52.968;5.816;2022-11-20T15:02:47;17.60;;;11.50;;
58528;SDS011;44322;52.968;5.816;2022-11-20T15:05:19;17.17;;;10.98;;
58528;SDS011;44322;52.968;5.816;2022-11-20T15:07:50;15.80;;;11.40;;
58528;SDS011;44322;52.968;5.816;2022-11-20T15:10:29;17.90;;;11.52;;
58528;SDS011;44322;52.968;5.816;2022-11-20T15:12:59;17.17;;;11.27;;
58528;SDS011;44322;52.968;5.816;2022-11-20T15:15:32;16.55;;;10.55;;
58528;SDS011;44322;52.968;5.816;2022-11-20T15:18:01;15.93;;;11.80;;
58528;SDS011;44322;52.968;5.816;2022-11-20T15:20:30;18.33;;;12.00;;
58528;SDS011;44322;52.968;5.816;2022-11-20T15:22:59;16.42;;;11.52;;
58528;SDS011;44322;52.968;5.816;2022-11-20T15:25:39;19.05;;;12.77;;
58528;SDS011;44322;52.968;5.816;2022-11-20T15:28:18;16.05;;;11.38;;
58528;SDS011;44322;52.968;5.816;2022-11-20T15:30:49;19.27;;;11.55;;
58528;SDS011;44322;52.968;5.816;2022-11-20T15:33:16;17.52;;;11.70;;
58528;SDS011;44322;52.968;5.816;2022-11-20T15:35:43;16.42;;;11.20;;
58528;SDS011;44322;52.968;5.816;2022-11-20T15:38:09;17.20;;;11.45;;
58528;SDS011;44322;52.968;5.816;2022-11-20T15:40:36;18.85;;;12.50;;
58528;SDS011;44322;52.968;5.816;2022-11-20T15:43:03;18.45;;;12.10;;
58528;SDS011;44322;52.968;5.816;2022-11-20T15:45:33;19.63;;;13.30;;
58528;SDS011;44322;52.968;5.816;2022-11-20T15:48:19;19.10;;;12.85;;
58528;SDS011;44322;52.968;5.816;2022-11-20T15:50:50;21.55;;;13.40;;
58528;SDS011;44322;52.968;5.816;2022-11-20T15:53:22;18.90;;;13.50;;
58528;SDS011;44322;52.968;5.816;2022-11-20T15:55:52;21.67;;;13.57;;
58528;SDS011;44322;52.968;5.816;2022-11-20T15:58:19;19.17;;;12.85;;
58528;SDS011;44322;52.968;5.816;2022-11-20T16:00:45;20.13;;;13.27;;
58528;SDS011;44322;52.968;5.816;2022-11-20T16:03:13;17.70;;;12.07;;
58528;SDS011;44322;52.968;5.816;2022-11-20T16:05:40;18.42;;;12.80;;
58528;SDS011;44322;52.968;5.816;2022-11-20T16:08:07;20.50;;;14.00;;
58528;SDS011;44322;52.968;5.816;2022-11-20T16:10:33;18.05;;;12.43;;
58528;SDS011;44322;52.968;5.816;2022-11-20T16:13:00;18.27;;;13.02;;
58528;SDS011;44322;52.968;5.816;2022-11-20T16:15:56;20.20;;;12.45;;
58528;SDS011;44322;52.968;5.816;2022-11-20T16:18:24;21.13;;;13.43;;
58528;SDS011;44322;52.968;5.816;2022-11-20T16:20:51;18.05;;;12.43;;
58528;SDS011;44322;52.968;5.816;2022-11-20T16:23:18;19.05;;;13.18;;
58528;SDS011;44322;52.968;5.816;2022-11-20T16:25:45;19.47;;;12.90;;
58528;SDS011;44322;52.968;5.816;2022-11-20T16:28:12;19.17;;;13.00;;
58528;SDS011;44322;52.968;5.816;2022-11-20T16:30:39;20.35;;;13.73;;
58528;SDS011;44322;52.968;5.816;2022-11-20T16:33:11;21.42;;;13.38;;
58528;SDS011;44322;52.968;5.816;2022-11-20T16:35:40;21.52;;;13.80;;
58528;SDS011;44322;52.968;5.816;2022-11-20T16:38:18;22.65;;;14.05;;
58528;SDS011;44322;52.968;5.816;2022-11-20T16:40:44;18.13;;;13.63;;